Iskenderun, Turkey
Current Conditions -  °F | °C
As of 11:50 AM on Wednesday 28 Jan 2015 (Local Time) from LTDA Reporting Station
Rain Showers Rain Showers  
Wind Chill: 50°   Ceiling: 3000
Heat Index: 50°   Visibility: 5mi
Dew Point: 41°   Wind: 6mph
Humidity: 71%   Direction: 310°NW
Pressure: 29.94"   Gusts: NA
Location:  36.58°N, 36.17°E
Report Text: LTDA 280850Z 31005KT 8000 -SHRA BKN030 10/05 Q1014
Loading
Personal Weather Stations






























Interactive Weather Map New forecast layout! Learn more

10-Day Weather Forecast

Advertisements
Track Severe Weather on mobile